KHVS

Hartsville Regional Airport

Hartsville, South Carolina, USA
METAR KHVS 190315Z AUTO 24003KT 10SM CLR M02/M08 A3028 RMK AO2
Observed Flight Rules
Jan-19 @ 03:15 UTC (26 minutes ago) Visual Flight Rules
Wind Visibility Clouds
240° at 3 knots 10 miles
  • Clear skies
Temperatures Readings
Current -2°C / 28°F
Dewpoint -8°C / 18°F
Humidity 64%
Altimeter 30.28" Hg
Pressure 1025 hPa
Elevation 111
METAR KHVS 190315Z AUTO 24003KT 10SM CLR M02/M08 A3028 RMK AO2
Observed Flight Rules
Jan-19 @ 03:15 UTC
(26 minutes ago)
VFR
Wind Visibility
240° at 3 knots 10 miles
Clouds
  • Clear skies
Temperature Dewpoint
-2°C / 28°F -8°C / 18°F
Humidity Altimeter Pressure
64% 30.28" Hg 1025 hPa